Flugwetter Augsburg

[source: ADDS]
METAR
EDMA 220120Z AUTO 27009KT 9999 // BKN008/// OVC017/// 11/10 Q1015 =
TAF EDMA 211700Z 2118/2203 26012KT 9000 BKN012 TEMPO 2118/2203 3500 RADZ SCT004 BKN008
TAF
TAF EDMA 211700Z 2118/2203 26012KT 9000 BKN012 TEMPO 2118/2203 3500 RADZ SCT004 BKN008 =
Cookies erleichtern die Bereitstellung unserer Dienste. Mit der Nutzung unserer Dienste erklären Sie sich damit einverstanden, dass wir Cookies verwenden.
Weitere Informationen Ok